createdAt,value
2018-12-29T00:02:10.755Z,99354.43
2018-12-29T00:05:00.218Z,99353.19
2018-12-29T00:07:42.068Z,99394.45
2018-12-29T00:10:31.452Z,99353.37
2018-12-29T00:13:13.135Z,99353.02
2018-12-29T00:16:21.473Z,99354.50
2018-12-29T00:19:03.776Z,99340.23
2018-12-29T00:21:53.122Z,99332.25
2018-12-29T00:24:35.765Z,99335.77
2018-12-29T00:27:25.150Z,99328.45
2018-12-29T00:30:07.121Z,99331.42
2018-12-29T00:32:56.466Z,99337.67
2018-12-29T00:35:38.380Z,99345.17
2018-12-29T00:38:20.821Z,99342.08
2018-12-29T00:41:10.167Z,99370.48
2018-12-29T00:43:52.464Z,99359.92
2018-12-29T00:46:41.898Z,99359.44
2018-12-29T00:49:24.251Z,99334.35
2018-12-29T00:52:13.689Z,99309.22
2018-12-29T00:54:54.824Z,99379.84
2018-12-29T00:57:36.880Z,99386.19
2018-12-29T01:00:26.491Z,99392.80
2018-12-29T01:03:08.760Z,99375.22
2018-12-29T01:05:58.218Z,99379.36
2018-12-29T01:08:40.572Z,99319.53
2018-12-29T01:11:30.009Z,99392.32
2018-12-29T01:14:12.970Z,99399.41
2018-12-29T01:17:02.303Z,99340.32
2018-12-29T01:19:44.699Z,99394.23
2018-12-29T01:22:34.184Z,99405.66
2018-12-29T01:25:16.388Z,99420.00
2018-12-29T01:28:05.883Z,99430.34
2018-12-29T01:30:47.859Z,99440.17
2018-12-29T01:33:37.537Z,99439.28
2018-12-29T01:36:19.367Z,99441.83
2018-12-29T01:39:01.446Z,99428.83
2018-12-29T01:41:50.821Z,99435.56
2018-12-29T01:44:32.658Z,99411.33
2018-12-29T01:47:22.012Z,99401.47
2018-12-29T01:50:03.968Z,99447.68
2018-12-29T01:52:53.612Z,99439.03
2018-12-29T01:55:43.037Z,99401.20
2018-12-29T01:58:25.223Z,99441.50
2018-12-29T02:01:14.650Z,99444.45
2018-12-29T02:03:56.747Z,99442.44
2018-12-29T02:06:46.187Z,99437.06
2018-12-29T02:09:28.594Z,99433.02
2018-12-29T02:12:17.937Z,99432.47
2018-12-29T02:15:00.015Z,99430.13
2018-12-29T02:17:49.391Z,99431.23
2018-12-29T02:20:38.820Z,99428.33
2018-12-29T02:23:21.227Z,99410.22
2018-12-29T02:26:10.726Z,99403.34
2018-12-29T02:28:52.803Z,99387.83
2018-12-29T02:31:42.185Z,99368.34
2018-12-29T02:34:24.740Z,99385.08
2018-12-29T02:37:14.257Z,99380.06
2018-12-29T02:39:56.372Z,99391.36
2018-12-29T02:42:45.777Z,99391.64
2018-12-29T02:45:35.157Z,99409.20
2018-12-29T02:48:17.063Z,99410.16
2018-12-29T02:51:06.490Z,99413.75
2018-12-29T02:53:48.686Z,99378.81
2018-12-29T02:56:38.048Z,99401.62
2018-12-29T02:59:20.484Z,99353.55
2018-12-29T03:02:09.841Z,99398.16
2018-12-29T03:04:51.844Z,99333.66
2018-12-29T03:07:41.256Z,99401.96
2018-12-29T03:10:23.239Z,99406.91
2018-12-29T03:13:12.737Z,99340.81
2018-12-29T03:15:54.443Z,99391.84
2018-12-29T03:18:43.825Z,99400.66
2018-12-29T03:21:33.234Z,99363.05
2018-12-29T03:24:15.640Z,99337.79
2018-12-29T03:27:05.095Z,99377.80
2018-12-29T03:29:46.877Z,99374.41
2018-12-29T03:32:36.337Z,99365.09
2018-12-29T03:35:18.721Z,99369.37
2018-12-29T03:38:08.221Z,99321.53
2018-12-29T03:40:57.709Z,99312.86
2018-12-29T03:43:39.950Z,99367.51
2018-12-29T03:46:29.449Z,99365.03
2018-12-29T03:49:11.308Z,99372.27
2018-12-29T03:52:00.741Z,99370.35
2018-12-29T03:54:42.857Z,99364.07
2018-12-29T03:57:32.299Z,99364.48
2018-12-29T04:00:14.998Z,99319.47
2018-12-29T04:03:04.434Z,99368.98
2018-12-29T04:05:46.724Z,99360.16
2018-12-29T04:08:36.153Z,99323.81
2018-12-29T04:11:18.681Z,99373.58
2018-12-29T04:14:08.119Z,99377.11
2018-12-29T04:16:50.677Z,99330.75
2018-12-29T04:19:20.950Z,99359.88
2018-12-29T04:22:10.374Z,99365.79
2018-12-29T04:24:59.713Z,99369.57
2018-12-29T04:27:41.762Z,99368.59
2018-12-29T04:30:31.202Z,99373.67
2018-12-29T04:33:20.551Z,99360.95
2018-12-29T04:36:02.677Z,99346.27
2018-12-29T04:38:44.775Z,99348.86
2018-12-29T04:41:34.120Z,99338.80
2018-12-29T04:44:16.247Z,99337.22
2018-12-29T04:47:05.731Z,99326.25
2018-12-29T04:49:48.205Z,99290.53
2018-12-29T04:52:37.739Z,99349.67
2018-12-29T04:55:20.044Z,99290.13
2018-12-29T04:58:09.496Z,99353.98
2018-12-29T05:00:51.599Z,99353.20
2018-12-29T05:03:41.061Z,99353.34
2018-12-29T05:06:23.320Z,99333.80
2018-12-29T05:09:12.782Z,99360.08
2018-12-29T05:11:55.149Z,99362.69
2018-12-29T05:14:44.604Z,99365.24
2018-12-29T05:17:27.124Z,99365.36
2018-12-29T05:20:16.489Z,99316.35
2018-12-29T05:22:58.424Z,99362.36
2018-12-29T05:25:47.828Z,99368.80
2018-12-29T05:28:30.571Z,99379.06
2018-12-29T05:31:19.979Z,99397.39
2018-12-29T05:34:02.664Z,99379.88
2018-12-29T05:36:52.060Z,99338.77
2018-12-29T05:39:34.377Z,99378.69
2018-12-29T05:45:24.635Z,99394.35
2018-12-29T05:48:14.026Z,99406.55
2018-12-29T05:50:44.192Z,99409.16
2018-12-29T05:53:33.636Z,99402.88
2018-12-29T05:56:23.000Z,99406.16
2018-12-29T05:59:05.184Z,99389.22
2018-12-29T06:01:54.566Z,99405.56
2018-12-29T06:04:36.668Z,99413.38
2018-12-29T06:07:26.006Z,99413.70
2018-12-29T06:10:07.759Z,99396.16
2018-12-29T06:12:57.186Z,99430.13
2018-12-29T06:15:39.509Z,99398.39
2018-12-29T06:18:28.850Z,99393.19
2018-12-29T06:21:11.055Z,99406.73
2018-12-29T06:24:00.429Z,99440.86
2018-12-29T06:26:42.721Z,99453.16
2018-12-29T06:29:32.178Z,99380.62
2018-12-29T06:32:14.440Z,99456.54
2018-12-29T06:35:03.969Z,99436.98
2018-12-29T06:37:45.913Z,99430.64
2018-12-29T06:40:25.824Z,99425.89
2018-12-29T06:43:15.187Z,99416.77
2018-12-29T06:45:57.604Z,99413.33
2018-12-29T06:48:46.936Z,99393.28
2018-12-29T06:51:29.594Z,99414.05
2018-12-29T06:54:19.042Z,99410.44
2018-12-29T06:57:00.824Z,99409.05
2018-12-29T06:59:50.192Z,99365.92
2018-12-29T07:02:32.188Z,99408.64
2018-12-29T07:05:21.529Z,99407.23
2018-12-29T07:08:04.247Z,99353.80
2018-12-29T07:10:53.657Z,99369.16
2018-12-29T07:13:35.761Z,99412.50
2018-12-29T07:16:25.136Z,99428.61
2018-12-29T07:19:07.145Z,99427.56
2018-12-29T07:21:56.594Z,99376.27
2018-12-29T07:24:38.570Z,99432.81
2018-12-29T07:27:27.907Z,99439.55
2018-12-29T07:30:10.350Z,99363.27
2018-12-29T07:36:01.035Z,99440.59
2018-12-29T07:38:43.091Z,99438.52
2018-12-29T07:41:32.471Z,99437.70
2018-12-29T07:44:14.303Z,99445.34
2018-12-29T07:50:11.887Z,99465.41
2018-12-29T07:53:01.398Z,99462.44
2018-12-29T07:55:43.420Z,99454.36
2018-12-29T07:58:32.761Z,99468.08
2018-12-29T08:01:15.377Z,99476.89
2018-12-29T08:04:04.810Z,99462.64
2018-12-29T08:06:47.016Z,99458.02
2018-12-29T08:09:36.419Z,99471.55
2018-12-29T08:12:19.001Z,99468.16
2018-12-29T08:15:08.366Z,99442.59
2018-12-29T08:17:50.347Z,99465.45
2018-12-29T08:20:39.717Z,99473.06
2018-12-29T08:23:29.077Z,99465.23
2018-12-29T08:26:18.508Z,99467.54
2018-12-29T08:29:00.637Z,99476.89
2018-12-29T08:31:50.018Z,99470.22
2018-12-29T08:34:31.860Z,99464.69
2018-12-29T08:37:21.289Z,99472.08
2018-12-29T08:40:03.494Z,99472.32
2018-12-29T08:42:53.019Z,99470.34
2018-12-29T08:45:35.700Z,99476.09
2018-12-29T08:48:25.050Z,99419.69
2018-12-29T08:51:07.036Z,99488.77
2018-12-29T08:53:56.396Z,99491.86
2018-12-29T08:56:38.408Z,99493.53
2018-12-29T08:59:27.764Z,99495.73
2018-12-29T09:02:10.148Z,99482.45
2018-12-29T09:04:59.601Z,99437.13
2018-12-29T09:07:41.961Z,99499.84
2018-12-29T09:13:19.390Z,99516.58
2018-12-29T09:16:08.791Z,99526.23
2018-12-29T09:18:51.038Z,99510.22
2018-12-29T09:21:40.456Z,99502.83
2018-12-29T09:24:22.818Z,99513.24
2018-12-29T09:27:12.270Z,99512.42
2018-12-29T09:29:54.356Z,99518.97
2018-12-29T09:32:43.724Z,99519.16
2018-12-29T09:35:26.511Z,99523.97
2018-12-29T09:38:15.903Z,99524.08
2018-12-29T09:41:05.327Z,99518.04
2018-12-29T09:43:54.731Z,99521.59
2018-12-29T09:46:36.966Z,99516.99
2018-12-29T09:49:26.413Z,99516.41
2018-12-29T09:52:08.709Z,99510.28
2018-12-29T09:54:58.096Z,99512.03
2018-12-29T09:57:40.402Z,99511.52
2018-12-29T10:00:29.836Z,99509.38
2018-12-29T10:02:59.984Z,99516.76
2018-12-29T10:05:49.413Z,99507.50
2018-12-29T10:08:38.868Z,99515.88
2018-12-29T10:11:20.842Z,99467.87
2018-12-29T10:14:10.212Z,99522.14
2018-12-29T10:16:52.160Z,99505.78
2018-12-29T10:19:41.502Z,99515.48
2018-12-29T10:22:23.783Z,99506.30
2018-12-29T10:25:13.115Z,99461.66
2018-12-29T10:27:55.451Z,99503.83
2018-12-29T10:30:44.932Z,99504.28
2018-12-29T10:33:34.284Z,99498.63
2018-12-29T10:36:16.574Z,99504.60
2018-12-29T10:38:59.061Z,99503.05
2018-12-29T10:41:48.408Z,99469.02
2018-12-29T10:44:30.442Z,99505.34
2018-12-29T10:47:19.870Z,99496.91
2018-12-29T10:50:02.057Z,99494.59
2018-12-29T10:52:51.547Z,99487.62
2018-12-29T10:55:33.927Z,99492.75
2018-12-29T10:58:23.288Z,99493.31
2018-12-29T11:01:05.435Z,99478.00
2018-12-29T11:03:54.925Z,99465.19
2018-12-29T11:06:37.446Z,99483.09
2018-12-29T11:09:26.793Z,99490.92
2018-12-29T11:12:08.782Z,99478.66
2018-12-29T11:14:58.155Z,99483.53
2018-12-29T11:17:42.483Z,99466.16
2018-12-29T11:20:31.840Z,99469.94
2018-12-29T11:25:59.275Z,99443.22
2018-12-29T11:28:41.185Z,99442.83
2018-12-29T11:31:30.615Z,99437.59
2018-12-29T11:34:12.901Z,99434.26
2018-12-29T11:37:02.276Z,99421.79
2018-12-29T11:39:44.316Z,99424.77
2018-12-29T11:42:33.972Z,99426.08
2018-12-29T11:45:15.733Z,99430.69
2018-12-29T11:48:05.259Z,99406.30
2018-12-29T11:50:47.931Z,99389.80
2018-12-29T11:53:37.419Z,99428.80
2018-12-29T11:56:19.429Z,99429.59
2018-12-29T11:59:08.876Z,99432.31
2018-12-29T12:01:50.631Z,99403.37
2018-12-29T12:04:40.496Z,99423.57
2018-12-29T12:07:22.954Z,99392.92
2018-12-29T12:10:12.316Z,99413.98
2018-12-29T12:12:54.502Z,99407.18
2018-12-29T12:15:43.939Z,99409.38
2018-12-29T12:18:27.848Z,99340.95
2018-12-29T12:21:17.286Z,99407.17
2018-12-29T12:23:59.786Z,99417.96
2018-12-29T12:26:49.237Z,99411.31
2018-12-29T12:29:31.402Z,99347.30
2018-12-29T12:32:20.756Z,99407.29
2018-12-29T12:35:05.224Z,99400.86
2018-12-29T12:37:54.577Z,99387.91
2018-12-29T12:40:37.143Z,99393.84
2018-12-29T12:43:26.506Z,99382.04
2018-12-29T12:46:09.933Z,99380.59
2018-12-29T12:48:59.440Z,99376.70
2018-12-29T12:51:42.030Z,99370.62
2018-12-29T12:54:12.651Z,99362.73
2018-12-29T12:57:02.110Z,99360.62
2018-12-29T12:59:46.358Z,99356.06
2018-12-29T13:02:35.717Z,99362.61
2018-12-29T13:05:18.011Z,99336.25
2018-12-29T13:08:07.434Z,99367.70
2018-12-29T13:10:49.840Z,99327.72
2018-12-29T13:13:20.166Z,99352.91
2018-12-29T13:16:09.718Z,99355.05
2018-12-29T13:18:59.158Z,99353.73
2018-12-29T13:21:41.653Z,99344.72
2018-12-29T13:24:31.072Z,99324.97
2018-12-29T13:27:13.072Z,99331.07
2018-12-29T13:30:02.433Z,99326.11
2018-12-29T13:32:44.730Z,99310.83
2018-12-29T13:35:34.104Z,99305.22
2018-12-29T13:38:16.395Z,99304.05
2018-12-29T13:41:06.032Z,99297.66
2018-12-29T13:43:48.546Z,99288.45
2018-12-29T13:46:38.100Z,99288.93
2018-12-29T13:49:20.226Z,99222.77
2018-12-29T13:52:09.744Z,99348.31
2018-12-29T13:54:59.140Z,99289.44
2018-12-29T13:57:41.808Z,99275.30
2018-12-29T14:00:31.186Z,99275.60
2018-12-29T14:03:08.513Z,99362.33
2018-12-29T14:05:57.991Z,99284.82
2018-12-29T14:08:47.310Z,99281.20
2018-12-29T14:11:36.758Z,99275.78
2018-12-29T14:14:18.953Z,99282.67
2018-12-29T14:17:08.396Z,99221.25
2018-12-29T14:19:50.721Z,99292.22
2018-12-29T14:22:40.262Z,99293.73
2018-12-29T14:25:22.059Z,99286.47
2018-12-29T14:28:11.412Z,99288.12
2018-12-29T14:30:53.818Z,99300.80
2018-12-29T14:33:43.262Z,99260.28
2018-12-29T14:36:25.764Z,99265.38
2018-12-29T14:39:07.809Z,99311.16
2018-12-29T14:41:57.261Z,99312.98
2018-12-29T14:44:39.327Z,99314.13
2018-12-29T14:47:28.869Z,99394.62
2018-12-29T14:50:11.228Z,99336.16
2018-12-29T14:53:01.078Z,99359.55
2018-12-29T14:55:31.407Z,99354.28
2018-12-29T14:58:20.771Z,99357.87
2018-12-29T15:01:10.303Z,99355.58
2018-12-29T15:03:52.323Z,99349.02
2018-12-29T15:06:41.726Z,99332.03
2018-12-29T15:09:24.371Z,99330.73
2018-12-29T15:12:13.745Z,99315.09
2018-12-29T15:14:55.702Z,99308.20
2018-12-29T15:17:45.095Z,99286.58
2018-12-29T15:20:29.082Z,99298.64
2018-12-29T15:23:18.743Z,99297.96
2018-12-29T15:26:01.399Z,99233.77
2018-12-29T15:28:50.870Z,99306.68
2018-12-29T15:31:33.381Z,99255.98
2018-12-29T15:34:22.839Z,99297.78
2018-12-29T15:37:05.703Z,99302.91
2018-12-29T15:39:47.891Z,99300.91
2018-12-29T15:42:44.712Z,99282.63
2018-12-29T15:45:21.407Z,99260.45
2018-12-29T15:48:10.764Z,99212.23
2018-12-29T15:50:52.698Z,99240.54
2018-12-29T15:53:42.157Z,99224.45
2018-12-29T15:56:23.845Z,99213.56
2018-12-29T15:59:13.276Z,99205.97
2018-12-29T16:01:55.193Z,99200.23
2018-12-29T16:04:44.542Z,99193.97
2018-12-29T16:07:26.753Z,99174.91
2018-12-29T16:09:56.989Z,99173.07
2018-12-29T16:12:46.458Z,99177.19
2018-12-29T16:15:30.144Z,99202.63
2018-12-29T16:18:19.875Z,99239.79
2018-12-29T16:21:02.398Z,99244.44
2018-12-29T16:23:51.770Z,99270.70
2018-12-29T16:26:33.841Z,99264.90
2018-12-29T16:29:04.323Z,99276.94
2018-12-29T16:31:53.752Z,99275.06
2018-12-29T16:34:43.091Z,99261.16
2018-12-29T16:37:25.284Z,99243.45
2018-12-29T16:40:08.092Z,99240.55
2018-12-29T16:42:57.525Z,99288.06
2018-12-29T16:45:40.059Z,99307.18
2018-12-29T16:48:29.801Z,99267.20
2018-12-29T16:51:13.327Z,99311.29
2018-12-29T16:54:03.070Z,99314.16
2018-12-29T16:56:46.577Z,99319.83
2018-12-29T16:59:35.974Z,99319.55
2018-12-29T17:02:18.176Z,99337.07
2018-12-29T17:05:07.755Z,99332.81
2018-12-29T17:07:50.481Z,99316.61
2018-12-29T17:10:39.903Z,99308.90
2018-12-29T17:13:23.382Z,99287.55
2018-12-29T17:16:12.881Z,99279.02
2018-12-29T17:19:02.348Z,99272.94
2018-12-29T17:21:44.502Z,99264.69
2018-12-29T17:24:33.936Z,99285.19
2018-12-29T17:27:18.323Z,99282.59
2018-12-29T17:30:07.870Z,99289.58
2018-12-29T17:32:51.405Z,99295.55
2018-12-29T17:35:41.124Z,99292.28
2018-12-29T17:38:23.620Z,99280.61
2018-12-29T17:41:13.038Z,99236.93
2018-12-29T17:43:56.907Z,99257.19
2018-12-29T17:46:46.557Z,99260.70
2018-12-29T17:49:28.964Z,99277.25
2018-12-29T17:52:18.805Z,99264.94
2018-12-29T17:55:00.966Z,99237.87
2018-12-29T17:57:50.342Z,99265.73
2018-12-29T18:00:20.854Z,99244.66
2018-12-29T18:02:51.150Z,99264.30
2018-12-29T18:05:21.532Z,99273.84
2018-12-29T18:08:11.013Z,99262.06
2018-12-29T18:11:00.400Z,99266.66
2018-12-29T18:13:42.463Z,99252.42
2018-12-29T18:16:32.282Z,99191.02
2018-12-29T18:19:02.556Z,99211.34
2018-12-29T18:21:32.883Z,99209.61
2018-12-29T18:24:03.295Z,99207.98
2018-12-29T18:26:34.648Z,99215.03
2018-12-29T18:29:05.261Z,99220.48
2018-12-29T18:31:35.568Z,99222.78
2018-12-29T18:34:05.884Z,99214.75
2018-12-29T18:36:36.120Z,99210.64
2018-12-29T18:39:18.375Z,99205.88
2018-12-29T18:42:07.856Z,99216.25
2018-12-29T18:44:38.279Z,99134.38
2018-12-29T18:47:29.842Z,99194.91
2018-12-29T18:50:00.234Z,99178.52
2018-12-29T18:52:50.880Z,99229.63
2018-12-29T18:55:32.779Z,99217.31
2018-12-29T19:01:11.042Z,99233.31
2018-12-29T19:04:00.625Z,99237.27
2018-12-29T19:06:51.007Z,99229.38
2018-12-29T19:09:33.048Z,99229.38
2018-12-29T19:12:22.396Z,99227.56
2018-12-29T19:14:52.532Z,99280.45
2018-12-29T19:17:41.943Z,99225.56
2018-12-29T19:20:25.629Z,99253.03
2018-12-29T19:22:55.914Z,99222.24
2018-12-29T19:25:26.199Z,99282.13
2018-12-29T19:28:15.691Z,99289.86
2018-12-29T19:31:05.138Z,99290.84
2018-12-29T19:33:49.606Z,99280.48
2018-12-29T19:36:39.084Z,99251.52
2018-12-29T19:39:22.727Z,99277.20
2018-12-29T19:42:12.292Z,99246.37
2018-12-29T19:44:54.672Z,99263.37
2018-12-29T19:47:44.027Z,99255.66
2018-12-29T19:50:28.202Z,99206.48
2018-12-29T19:53:17.633Z,99134.76
2018-12-29T19:55:59.611Z,99156.61
2018-12-29T19:58:29.959Z,99118.02
2018-12-29T20:01:19.410Z,99173.13
2018-12-29T20:04:08.840Z,99165.55
2018-12-29T20:06:50.979Z,99150.10
2018-12-29T20:09:40.415Z,99107.33
2018-12-29T20:12:23.045Z,99130.38
2018-12-29T20:15:12.605Z,99117.86
2018-12-29T20:17:55.011Z,99104.23
2018-12-29T20:20:44.476Z,99099.30
2018-12-29T20:23:28.644Z,99070.87
2018-12-29T20:29:12.803Z,99084.20
2018-12-29T20:31:55.122Z,99084.50
2018-12-29T20:34:44.512Z,99071.84
2018-12-29T20:37:26.670Z,99014.19
2018-12-29T20:40:09.411Z,99061.85
2018-12-29T20:42:58.770Z,99057.91
2018-12-29T20:45:41.316Z,99053.14
2018-12-29T20:48:30.379Z,99048.19
2018-12-29T20:51:12.474Z,99059.22
2018-12-29T20:54:01.936Z,99062.16
2018-12-29T20:56:32.294Z,99051.15
2018-12-29T20:59:02.667Z,99046.56
2018-12-29T21:01:32.910Z,99038.98
2018-12-29T21:04:03.535Z,99042.77
2018-12-29T21:06:34.023Z,99042.13
2018-12-29T21:09:05.894Z,99042.13
2018-12-29T21:11:36.258Z,99065.78
2018-12-29T21:14:06.566Z,99073.00
2018-12-29T21:16:37.226Z,99070.21
2018-12-29T21:19:07.464Z,99067.73
2018-12-29T21:21:37.785Z,99067.23
2018-12-29T21:24:12.170Z,99071.67
2018-12-29T21:26:40.097Z,99066.73
2018-12-29T21:29:10.288Z,99068.88
2018-12-29T21:31:40.513Z,99068.40
2018-12-29T21:34:10.708Z,99078.43
2018-12-29T21:36:40.945Z,99078.09
2018-12-29T21:39:11.201Z,99081.55
2018-12-29T21:41:41.621Z,99079.91
2018-12-29T21:44:11.812Z,99056.57
2018-12-29T21:46:42.033Z,99057.70
2018-12-29T21:49:12.331Z,99054.26
2018-12-29T21:51:42.541Z,99052.14
2018-12-29T21:54:12.733Z,99058.53
2018-12-29T21:56:43.095Z,99049.67
2018-12-29T21:59:13.349Z,99047.68
2018-12-29T22:01:43.666Z,99038.81
2018-12-29T22:04:13.973Z,99035.55
2018-12-29T22:06:44.356Z,99032.23
2018-12-29T22:09:14.585Z,99018.75
2018-12-29T22:11:44.801Z,99015.94
2018-12-29T22:14:15.090Z,99022.00
2018-12-29T22:16:45.592Z,99009.17
2018-12-29T22:19:15.923Z,98996.63
2018-12-29T22:21:46.199Z,98996.25
2018-12-29T22:24:16.410Z,98990.45
2018-12-29T22:26:46.742Z,98979.53
2018-12-29T22:29:17.285Z,98982.30
2018-12-29T22:31:47.556Z,98980.41
2018-12-29T22:34:17.771Z,98974.13
2018-12-29T22:36:48.166Z,98978.19
2018-12-29T22:39:18.425Z,98986.53
2018-12-29T22:41:48.748Z,98972.14
2018-12-29T22:44:19.045Z,98963.48
2018-12-29T22:46:49.317Z,98959.80
2018-12-29T22:49:19.546Z,98974.52
2018-12-29T22:51:49.790Z,98978.52
2018-12-29T22:54:20.127Z,98980.26
2018-12-29T22:56:50.399Z,98981.02
2018-12-29T22:59:21.724Z,98983.39
2018-12-29T23:01:52.058Z,98970.83
2018-12-29T23:04:22.352Z,98981.77
2018-12-29T23:06:52.619Z,98997.82
2018-12-29T23:09:22.903Z,99000.75
2018-12-29T23:11:53.240Z,99001.61
2018-12-29T23:14:24.108Z,98997.42
2018-12-29T23:16:54.818Z,98976.56
2018-12-29T23:19:25.178Z,98980.34
2018-12-29T23:21:57.608Z,98979.66
2018-12-29T23:24:27.368Z,98984.36
2018-12-29T23:26:57.848Z,98975.98
2018-12-29T23:29:29.021Z,98981.39
2018-12-29T23:31:59.322Z,98964.78
2018-12-29T23:34:30.049Z,98960.79
2018-12-29T23:37:00.425Z,98956.32
2018-12-29T23:39:30.771Z,98952.05
2018-12-29T23:42:01.548Z,98956.30
2018-12-29T23:44:31.703Z,98953.29
2018-12-29T23:47:02.107Z,98962.52
2018-12-29T23:49:32.612Z,98972.37
2018-12-29T23:52:03.335Z,98975.88
2018-12-29T23:54:33.618Z,98982.18
2018-12-29T23:57:03.943Z,98991.81
2018-12-29T23:59:34.340Z,99000.40
